createdAt,value
2018-09-12T00:01:30.477Z,97619.84
2018-09-12T00:03:57.644Z,97623.30
2018-09-12T00:06:24.979Z,97616.62
2018-09-12T00:08:52.129Z,97610.52
2018-09-12T00:11:19.344Z,97617.02
2018-09-12T00:13:46.559Z,97611.94
2018-09-12T00:16:13.700Z,97616.56
2018-09-12T00:18:40.821Z,97604.62
2018-09-12T00:21:08.170Z,97602.78
2018-09-12T00:23:35.311Z,97601.77
2018-09-12T00:26:02.477Z,97602.73
2018-09-12T00:28:29.738Z,97597.33
2018-09-12T00:30:56.994Z,97598.32
2018-09-12T00:33:24.309Z,97596.88
2018-09-12T00:35:51.473Z,97584.23
2018-09-12T00:38:18.620Z,97592.11
2018-09-12T00:40:45.801Z,97583.15
2018-09-12T00:43:12.913Z,97585.71
2018-09-12T00:45:40.004Z,97579.59
2018-09-12T00:48:07.338Z,97576.05
2018-09-12T00:50:34.484Z,97580.14
2018-09-12T00:53:01.668Z,97585.09
2018-09-12T00:55:28.898Z,97581.80
2018-09-12T00:57:56.132Z,97582.90
2018-09-12T01:00:23.421Z,97579.08
2018-09-12T01:02:52.067Z,97578.20
2018-09-12T01:05:19.273Z,97576.70
2018-09-12T01:07:46.372Z,97579.33
2018-09-12T01:10:13.623Z,97573.38
2018-09-12T01:12:40.739Z,97580.36
2018-09-12T01:15:07.922Z,97579.63
2018-09-12T01:17:35.169Z,97581.27
2018-09-12T01:20:02.488Z,97575.32
2018-09-12T01:22:29.688Z,97574.17
2018-09-12T01:24:56.832Z,97574.80
2018-09-12T01:27:24.000Z,97573.78
2018-09-12T01:29:51.517Z,97574.23
2018-09-12T01:32:18.833Z,97574.67
2018-09-12T01:34:46.013Z,97577.87
2018-09-12T01:37:13.932Z,97567.26
2018-09-12T01:39:41.081Z,97564.65
2018-09-12T01:42:08.252Z,97564.73
2018-09-12T01:44:35.348Z,97569.13
2018-09-12T01:47:02.495Z,97561.45
2018-09-12T01:49:29.620Z,97557.23
2018-09-12T01:51:56.717Z,97559.49
2018-09-12T01:54:23.801Z,97561.30
2018-09-12T01:56:51.124Z,97558.59
2018-09-12T01:59:20.833Z,97564.56
2018-09-12T02:01:47.917Z,97562.14
2018-09-12T02:04:15.142Z,97563.05
2018-09-12T02:06:42.352Z,97555.52
2018-09-12T02:09:13.608Z,97563.78
2018-09-12T02:11:40.772Z,97564.40
2018-09-12T02:14:07.930Z,97556.50
2018-09-12T02:16:35.132Z,97560.25
2018-09-12T02:19:02.589Z,97551.09
2018-09-12T02:21:29.716Z,97552.70
2018-09-12T02:23:56.897Z,97555.09
2018-09-12T02:26:24.082Z,97549.77
2018-09-12T02:28:51.253Z,97546.19
2018-09-12T02:31:18.620Z,97548.52
2018-09-12T02:33:45.841Z,97548.28
2018-09-12T02:36:18.719Z,97550.94
2018-09-12T02:38:45.811Z,97547.55
2018-09-12T02:41:12.925Z,97546.45
2018-09-12T02:43:40.169Z,97541.94
2018-09-12T02:46:07.321Z,97539.86
2018-09-12T02:48:34.596Z,97534.91
2018-09-12T02:51:01.767Z,97530.08
2018-09-12T02:53:28.875Z,97529.91
2018-09-12T02:55:56.113Z,97522.58
2018-09-12T02:58:23.252Z,97524.68
2018-09-12T03:00:50.451Z,97525.77
2018-09-12T03:03:18.452Z,97520.28
2018-09-12T03:05:45.652Z,97523.09
2018-09-12T03:08:12.856Z,97517.86
2018-09-12T03:10:40.092Z,97523.40
2018-09-12T03:13:07.261Z,97526.95
2018-09-12T03:15:34.495Z,97521.67
2018-09-12T03:18:01.708Z,97527.44
2018-09-12T03:20:28.878Z,97527.33
2018-09-12T03:22:56.028Z,97530.93
2018-09-12T03:25:23.161Z,97524.58
2018-09-12T03:27:50.271Z,97518.95
2018-09-12T03:30:17.653Z,97525.88
2018-09-12T03:32:44.931Z,97527.88
2018-09-12T03:35:12.085Z,97521.56
2018-09-12T03:37:40.239Z,97518.71
2018-09-12T03:40:07.341Z,97517.05
2018-09-12T03:42:34.471Z,97513.14
2018-09-12T03:45:01.679Z,97514.45
2018-09-12T03:47:28.821Z,97516.20
2018-09-12T03:49:55.954Z,97514.88
2018-09-12T03:52:23.159Z,97509.20
2018-09-12T03:54:50.330Z,97513.05
2018-09-12T03:57:17.564Z,97514.14
2018-09-12T03:59:44.824Z,97508.68
2018-09-12T04:02:12.034Z,97520.31
2018-09-12T04:04:39.217Z,97515.23
2018-09-12T04:07:06.437Z,97512.83
2018-09-12T04:09:33.541Z,97512.29
2018-09-12T04:12:00.888Z,97507.16
2018-09-12T04:14:28.029Z,97508.38
2018-09-12T04:16:55.247Z,97507.41
2018-09-12T04:19:22.424Z,97507.56
2018-09-12T04:21:49.570Z,97510.70
2018-09-12T04:24:16.985Z,97508.41
2018-09-12T04:26:44.228Z,97504.26
2018-09-12T04:29:11.416Z,97503.89
2018-09-12T04:31:38.652Z,97502.03
2018-09-12T04:34:05.768Z,97494.45
2018-09-12T04:36:32.997Z,97496.73
2018-09-12T04:39:00.248Z,97502.30
2018-09-12T04:41:27.405Z,97499.14
2018-09-12T04:43:54.952Z,97502.30
2018-09-12T04:46:22.194Z,97500.44
2018-09-12T04:48:49.324Z,97499.77
2018-09-12T04:51:17.433Z,97495.03
2018-09-12T04:53:44.674Z,97495.05
2018-09-12T04:56:11.873Z,97499.81
2018-09-12T04:58:38.977Z,97498.06
2018-09-12T05:01:06.243Z,97497.44
2018-09-12T05:03:33.357Z,97497.80
2018-09-12T05:06:00.478Z,97500.59
2018-09-12T05:08:27.661Z,97497.38
2018-09-12T05:10:54.841Z,97497.23
2018-09-12T05:13:21.988Z,97502.38
2018-09-12T05:15:49.116Z,97496.72
2018-09-12T05:18:16.380Z,97498.05
2018-09-12T05:20:43.704Z,97496.84
2018-09-12T05:23:10.872Z,97499.66
2018-09-12T05:25:38.084Z,97500.75
2018-09-12T05:28:05.300Z,97503.00
2018-09-12T05:30:32.502Z,97504.77
2018-09-12T05:32:59.801Z,97507.84
2018-09-12T05:35:27.011Z,97509.61
2018-09-12T05:37:54.161Z,97503.53
2018-09-12T05:40:21.305Z,97504.82
2018-09-12T05:42:48.682Z,97493.63
2018-09-12T05:45:15.876Z,97502.72
2018-09-12T05:47:43.237Z,97500.48
2018-09-12T05:50:10.404Z,97493.55
2018-09-12T05:52:37.557Z,97492.53
2018-09-12T05:55:05.244Z,97494.91
2018-09-12T05:57:32.438Z,97493.11
2018-09-12T05:59:59.691Z,97496.64
2018-09-12T06:02:26.949Z,97493.45
2018-09-12T06:04:54.082Z,97495.05
2018-09-12T06:07:21.325Z,97499.31
2018-09-12T06:09:48.425Z,97494.48
2018-09-12T06:12:15.617Z,97488.69
2018-09-12T06:14:42.784Z,97485.47
2018-09-12T06:17:09.887Z,97481.56
2018-09-12T06:19:37.001Z,97480.34
2018-09-12T06:22:04.193Z,97483.28
2018-09-12T06:24:31.332Z,97482.59
2018-09-12T06:26:58.640Z,97478.03
2018-09-12T06:29:25.856Z,97479.77
2018-09-12T06:31:53.070Z,97473.13
2018-09-12T06:34:20.249Z,97476.52
2018-09-12T06:36:47.359Z,97476.44
2018-09-12T06:39:14.611Z,97479.68
2018-09-12T06:41:41.724Z,97486.47
2018-09-12T06:44:08.904Z,97482.77
2018-09-12T06:46:36.333Z,97480.25
2018-09-12T06:49:03.633Z,97477.14
2018-09-12T06:51:30.847Z,97474.91
2018-09-12T06:53:58.098Z,97476.45
2018-09-12T06:56:25.471Z,97474.58
2018-09-12T06:58:52.733Z,97474.61
2018-09-12T07:01:19.936Z,97468.78
2018-09-12T07:03:47.028Z,97469.06
2018-09-12T07:06:14.180Z,97470.72
2018-09-12T07:08:41.427Z,97470.92
2018-09-12T07:11:08.581Z,97466.91
2018-09-12T07:13:35.757Z,97460.73
2018-09-12T07:16:03.022Z,97462.84
2018-09-12T07:18:30.117Z,97466.59
2018-09-12T07:20:57.295Z,97470.83
2018-09-12T07:23:24.517Z,97467.94
2018-09-12T07:25:51.662Z,97466.14
2018-09-12T07:28:18.924Z,97468.61
2018-09-12T07:30:46.093Z,97472.13
2018-09-12T07:33:13.220Z,97473.27
2018-09-12T07:35:41.005Z,97471.95
2018-09-12T07:38:08.168Z,97471.22
2018-09-12T07:40:35.272Z,97466.36
2018-09-12T07:43:02.477Z,97475.89
2018-09-12T07:45:29.621Z,97480.69
2018-09-12T07:47:56.829Z,97478.03
2018-09-12T07:50:24.105Z,97478.35
2018-09-12T07:52:51.281Z,97481.03
2018-09-12T07:55:18.581Z,97487.83
2018-09-12T07:57:45.727Z,97487.70
2018-09-12T08:00:13.013Z,97493.36
2018-09-12T08:02:40.267Z,97490.05
2018-09-12T08:05:07.981Z,97487.39
2018-09-12T08:07:35.065Z,97486.93
2018-09-12T08:10:02.524Z,97490.55
2018-09-12T08:12:29.624Z,97493.34
2018-09-12T08:14:56.768Z,97494.47
2018-09-12T08:17:24.264Z,97495.66
2018-09-12T08:19:51.442Z,97494.66
2018-09-12T08:22:18.604Z,97498.75
2018-09-12T08:24:45.838Z,97491.06
2018-09-12T08:27:12.998Z,97487.05
2018-09-12T08:29:40.242Z,97484.63
2018-09-12T08:32:07.482Z,97488.24
2018-09-12T08:34:34.685Z,97481.90
2018-09-12T08:37:01.973Z,97480.84
2018-09-12T08:39:29.121Z,97486.16
2018-09-12T08:41:56.295Z,97485.31
2018-09-12T08:44:23.467Z,97489.32
2018-09-12T08:46:50.616Z,97482.38
2018-09-12T08:49:17.735Z,97487.16
2018-09-12T08:51:44.933Z,97490.39
2018-09-12T08:54:12.062Z,97480.23
2018-09-12T08:56:39.345Z,97484.16
2018-09-12T08:59:06.611Z,97480.77
2018-09-12T09:01:33.847Z,97486.41
2018-09-12T09:04:01.154Z,97475.88
2018-09-12T09:06:28.249Z,97468.36
2018-09-12T09:08:55.440Z,97476.52
2018-09-12T09:11:22.745Z,97474.03
2018-09-12T09:13:49.975Z,97476.34
2018-09-12T09:16:17.191Z,97480.98
2018-09-12T09:18:44.386Z,97474.81
2018-09-12T09:21:11.605Z,97476.37
2018-09-12T09:23:38.970Z,97470.75
2018-09-12T09:26:06.223Z,97470.39
2018-09-12T09:28:33.417Z,97470.41
2018-09-12T09:31:00.696Z,97468.23
2018-09-12T09:33:27.872Z,97471.50
2018-09-12T09:35:54.996Z,97471.52
2018-09-12T09:38:22.332Z,97464.95
2018-09-12T09:40:49.568Z,97458.53
2018-09-12T09:43:16.708Z,97461.05
2018-09-12T09:45:44.036Z,97454.33
2018-09-12T09:48:11.297Z,97459.11
2018-09-12T09:50:38.388Z,97451.92
2018-09-12T09:53:05.652Z,97452.26
2018-09-12T09:55:32.817Z,97448.58
2018-09-12T09:58:00.001Z,97450.26
2018-09-12T10:00:32.937Z,97448.30
2018-09-12T10:04:09.652Z,97443.84
2018-09-12T10:06:42.326Z,97446.97
2018-09-12T10:09:15.294Z,97441.13
2018-09-12T10:11:42.582Z,97437.04
2018-09-12T10:14:09.809Z,97435.81
2018-09-12T10:16:36.986Z,97433.08
2018-09-12T10:19:04.280Z,97435.69
2018-09-12T10:21:31.423Z,97432.94
2018-09-12T10:23:58.628Z,97420.34
2018-09-12T10:26:25.876Z,97422.42
2018-09-12T10:28:53.000Z,97421.62
2018-09-12T10:31:20.498Z,97429.77
2018-09-12T10:33:47.716Z,97423.31
2018-09-12T10:36:14.850Z,97422.95
2018-09-12T10:38:42.141Z,97423.64
2018-09-12T10:41:09.409Z,97419.01
2018-09-12T10:43:36.672Z,97419.88
2018-09-12T10:46:04.074Z,97418.93
2018-09-12T10:48:31.240Z,97413.00
2018-09-12T10:50:58.474Z,97414.13
2018-09-12T10:53:25.639Z,97400.61
2018-09-12T10:55:52.812Z,97403.80
2018-09-12T10:58:20.243Z,97401.58
2018-09-12T11:00:47.529Z,97397.72
2018-09-12T11:03:14.728Z,97393.30
2018-09-12T11:05:42.016Z,97394.83
2018-09-12T11:08:09.174Z,97379.03
2018-09-12T11:10:36.369Z,97379.23
2018-09-12T11:13:03.751Z,97374.61
2018-09-12T11:15:31.072Z,97366.87
2018-09-12T11:17:58.348Z,97367.55
2018-09-12T11:20:25.546Z,97374.69
2018-09-12T11:22:52.996Z,97370.31
2018-09-12T11:25:20.202Z,97376.24
2018-09-12T11:27:47.461Z,97369.83
2018-09-12T11:30:14.661Z,97358.27
2018-09-12T11:32:41.878Z,97344.70
2018-09-12T11:35:09.024Z,97362.14
2018-09-12T11:37:36.179Z,97354.95
2018-09-12T11:40:04.711Z,97364.95
2018-09-12T11:42:31.925Z,97356.22
2018-09-12T11:44:59.099Z,97344.88
2018-09-12T11:47:26.290Z,97348.45
2018-09-12T11:49:57.443Z,97352.41
2018-09-12T11:52:24.826Z,97350.39
2018-09-12T11:54:52.034Z,97348.59
2018-09-12T11:57:19.324Z,97307.54
2018-09-12T11:59:46.527Z,97344.34
2018-09-12T12:02:13.808Z,97335.08
2018-09-12T12:04:40.958Z,97342.06
2018-09-12T12:07:08.109Z,97339.74
2018-09-12T12:09:35.324Z,97336.88
2018-09-12T12:12:02.533Z,97335.03
2018-09-12T12:14:29.751Z,97325.36
2018-09-12T12:16:56.912Z,97319.30
2018-09-12T12:19:24.882Z,97317.24
2018-09-12T12:21:52.329Z,97321.71
2018-09-12T12:24:19.534Z,97313.03
2018-09-12T12:26:46.972Z,97310.67
2018-09-12T12:29:14.213Z,97309.50
2018-09-12T12:31:41.384Z,97302.23
2018-09-12T12:34:08.807Z,97306.30
2018-09-12T12:36:35.975Z,97306.19
2018-09-12T12:39:05.164Z,97303.45
2018-09-12T12:41:32.573Z,97294.86
2018-09-12T12:44:00.189Z,97283.70
2018-09-12T12:46:27.300Z,97284.08
2018-09-12T12:48:54.557Z,97278.34
2018-09-12T12:51:21.725Z,97279.33
2018-09-12T12:53:48.870Z,97271.52
2018-09-12T12:56:16.143Z,97270.05
2018-09-12T12:58:43.310Z,97264.23
2018-09-12T13:01:10.469Z,97269.69
2018-09-12T13:03:38.405Z,97258.25
2018-09-12T13:06:05.765Z,97261.94
2018-09-12T13:08:32.933Z,97261.75
2018-09-12T13:11:00.257Z,97258.78
2018-09-12T13:13:27.417Z,97260.88
2018-09-12T13:15:54.604Z,97249.47
2018-09-12T13:18:21.767Z,97245.46
2018-09-12T13:20:49.014Z,97247.00
2018-09-12T13:23:16.305Z,97245.28
2018-09-12T13:25:43.632Z,97234.37
2018-09-12T13:28:10.790Z,97235.20
2018-09-12T13:30:38.099Z,97238.92
2018-09-12T13:33:05.589Z,97233.39
2018-09-12T13:35:32.786Z,97221.23
2018-09-12T13:38:00.017Z,97212.40
2018-09-12T13:40:27.216Z,97211.45
2018-09-12T13:42:54.342Z,97214.56
2018-09-12T13:45:21.609Z,97217.22
2018-09-12T13:47:48.803Z,97208.99
2018-09-12T13:50:16.636Z,97201.16
2018-09-12T13:52:44.597Z,97216.08
2018-09-12T13:55:11.831Z,97216.10
2018-09-12T13:57:39.041Z,97209.15
2018-09-12T14:00:06.684Z,97207.05
2018-09-12T14:02:33.833Z,97194.82
2018-09-12T14:05:01.089Z,97187.51
2018-09-12T14:07:28.337Z,97181.39
2018-09-12T14:09:55.551Z,97188.37
2018-09-12T14:12:22.687Z,97178.24
2018-09-12T14:14:49.950Z,97178.45
2018-09-12T14:17:17.165Z,97183.44
2018-09-12T14:19:44.589Z,97180.72
2018-09-12T14:22:11.756Z,97164.58
2018-09-12T14:24:38.968Z,97168.97
2018-09-12T14:27:06.174Z,97166.16
2018-09-12T14:29:33.381Z,97166.59
2018-09-12T14:32:00.556Z,97163.32
2018-09-12T14:34:27.903Z,97161.08
2018-09-12T14:36:55.044Z,97155.20
2018-09-12T14:39:22.259Z,97150.94
2018-09-12T14:41:49.532Z,97154.73
2018-09-12T14:44:16.653Z,97144.61
2018-09-12T14:46:43.993Z,97144.77
2018-09-12T14:49:11.228Z,97144.77
2018-09-12T14:51:38.381Z,97141.44
2018-09-12T14:54:05.673Z,97138.40
2018-09-12T14:56:32.854Z,97138.44
2018-09-12T14:59:00.078Z,97140.41
2018-09-12T15:01:27.527Z,97132.61
2018-09-12T15:03:54.671Z,97135.10
2018-09-12T15:06:21.853Z,97137.40
2018-09-12T15:08:49.074Z,97136.36
2018-09-12T15:11:16.217Z,97135.41
2018-09-12T15:13:43.690Z,97133.45
2018-09-12T15:16:10.999Z,97131.95
2018-09-12T15:18:38.179Z,97131.16
2018-09-12T15:21:05.417Z,97121.10
2018-09-12T15:23:32.669Z,97126.15
2018-09-12T15:25:59.931Z,97119.87
2018-09-12T15:28:27.348Z,97127.62
2018-09-12T15:30:54.578Z,97127.94
2018-09-12T15:33:21.762Z,97117.61
2018-09-12T15:35:49.517Z,97115.16
2018-09-12T15:38:16.697Z,97114.22
2018-09-12T15:40:43.919Z,97112.87
2018-09-12T15:43:11.263Z,97110.14
2018-09-12T15:45:38.525Z,97117.30
2018-09-12T15:48:05.812Z,97110.91
2018-09-12T15:50:33.038Z,97107.58
2018-09-12T15:53:00.170Z,97102.81
2018-09-12T15:55:27.430Z,97105.33
2018-09-12T15:57:54.771Z,97070.75
2018-09-12T16:00:21.911Z,97096.93
2018-09-12T16:02:49.184Z,97104.30
2018-09-12T16:05:16.375Z,97099.16
2018-09-12T16:07:43.864Z,97098.14
2018-09-12T16:10:11.218Z,97094.70
2018-09-12T16:12:38.442Z,97086.27
2018-09-12T16:15:05.636Z,97093.52
2018-09-12T16:17:32.889Z,97078.80
2018-09-12T16:20:00.092Z,97080.77
2018-09-12T16:22:27.248Z,97081.87
2018-09-12T16:24:54.488Z,97081.48
2018-09-12T16:27:22.361Z,97080.64
2018-09-12T16:29:49.543Z,97088.22
2018-09-12T16:32:17.468Z,97084.23
2018-09-12T16:34:44.683Z,97081.41
2018-09-12T16:37:11.861Z,97086.70
2018-09-12T16:39:39.177Z,97077.84
2018-09-12T16:42:06.326Z,97083.80
2018-09-12T16:44:33.483Z,97084.66
2018-09-12T16:47:00.832Z,97086.47
2018-09-12T16:49:28.012Z,97083.08
2018-09-12T16:51:55.343Z,97084.84
2018-09-12T16:54:22.793Z,97081.65
2018-09-12T16:56:50.035Z,97077.92
2018-09-12T16:59:17.173Z,97071.01
2018-09-12T17:01:44.628Z,97078.70
2018-09-12T17:04:11.803Z,97078.56
2018-09-12T17:06:39.076Z,97073.81
2018-09-12T17:09:07.909Z,97073.37
2018-09-12T17:11:35.184Z,97081.23
2018-09-12T17:14:02.397Z,97083.70
2018-09-12T17:16:29.680Z,97083.13
2018-09-12T17:18:56.890Z,97080.73
2018-09-12T17:21:24.212Z,97075.85
2018-09-12T17:23:51.612Z,97078.58
2018-09-12T17:26:18.797Z,97081.98
2018-09-12T17:28:46.801Z,97085.12
2018-09-12T17:31:14.112Z,97078.45
2018-09-12T17:33:41.345Z,97084.92
2018-09-12T17:36:08.844Z,97091.91
2018-09-12T17:38:36.176Z,97083.91
2018-09-12T17:41:03.428Z,97082.82
2018-09-12T17:43:30.565Z,97085.47
2018-09-12T17:45:57.863Z,97090.97
2018-09-12T17:48:25.132Z,97094.90
2018-09-12T17:50:52.334Z,97093.55
2018-09-12T17:53:19.607Z,97093.81
2018-09-12T17:55:46.884Z,97098.30
2018-09-12T17:58:14.259Z,97098.70
2018-09-12T18:00:41.448Z,97094.95
2018-09-12T18:03:08.744Z,97094.43
2018-09-12T18:05:36.086Z,97102.45
2018-09-12T18:08:03.406Z,97101.21
2018-09-12T18:10:30.577Z,97103.59
2018-09-12T18:12:58.101Z,97105.24
2018-09-12T18:15:25.324Z,97113.44
2018-09-12T18:17:52.928Z,97109.26
2018-09-12T18:20:21.220Z,97107.38
2018-09-12T18:22:48.520Z,97112.08
2018-09-12T18:25:15.728Z,97115.02
2018-09-12T18:27:43.069Z,97117.84
2018-09-12T18:30:11.120Z,97120.56
2018-09-12T18:32:38.371Z,97115.52
2018-09-12T18:35:05.733Z,97116.31
2018-09-12T18:37:33.108Z,97120.44
2018-09-12T18:40:00.277Z,97119.66
2018-09-12T18:42:27.569Z,97120.47
2018-09-12T18:44:54.697Z,97119.47
2018-09-12T18:47:21.891Z,97124.67
2018-09-12T18:49:49.095Z,97124.09
2018-09-12T18:52:16.313Z,97131.53
2018-09-12T18:54:43.480Z,97119.81
2018-09-12T18:57:10.755Z,97119.33
2018-09-12T18:59:37.903Z,97126.89
2018-09-12T19:02:05.141Z,97130.39
2018-09-12T19:04:32.413Z,97128.45
2018-09-12T19:06:59.768Z,97126.00
2018-09-12T19:09:26.980Z,97127.81
2018-09-12T19:11:54.169Z,97125.53
2018-09-12T19:14:21.310Z,97123.88
2018-09-12T19:16:48.534Z,97121.55
2018-09-12T19:19:15.737Z,97125.16
2018-09-12T19:21:42.908Z,97121.13
2018-09-12T19:24:10.868Z,97128.71
2018-09-12T19:26:38.099Z,97127.81
2018-09-12T19:29:05.485Z,97132.44
2018-09-12T19:31:32.884Z,97130.41
2018-09-12T19:34:00.168Z,97134.44
2018-09-12T19:36:27.237Z,97131.75
2018-09-12T19:38:54.502Z,97135.26
2018-09-12T19:41:21.652Z,97131.31
2018-09-12T19:43:49.083Z,97131.08
2018-09-12T19:46:16.406Z,97140.20
2018-09-12T19:48:43.522Z,97133.89
2018-09-12T19:51:16.047Z,97139.61
2018-09-12T19:53:43.724Z,97136.97
2018-09-12T19:56:12.343Z,97142.44
2018-09-12T19:58:39.965Z,97144.28
2018-09-12T20:01:07.318Z,97137.60
2018-09-12T20:03:34.809Z,97142.61
2018-09-12T20:06:02.296Z,97142.70
2018-09-12T20:08:29.526Z,97137.94
2018-09-12T20:10:56.697Z,97138.39
2018-09-12T20:13:23.807Z,97143.64
2018-09-12T20:15:51.082Z,97137.16
2018-09-12T20:18:18.647Z,97142.92
2018-09-12T20:20:45.908Z,97139.00
2018-09-12T20:23:13.124Z,97146.24
2018-09-12T20:25:40.401Z,97144.34
2018-09-12T20:28:07.579Z,97145.25
2018-09-12T20:30:34.705Z,97149.16
2018-09-12T20:33:01.877Z,97138.64
2018-09-12T20:35:29.081Z,97142.30
2018-09-12T20:37:57.274Z,97144.01
2018-09-12T20:40:24.617Z,97138.83
2018-09-12T20:42:51.892Z,97135.17
2018-09-12T20:45:19.109Z,97138.75
2018-09-12T20:47:46.302Z,97140.66
2018-09-12T20:50:13.568Z,97140.02
2018-09-12T20:52:41.540Z,97138.35
2018-09-12T20:55:08.754Z,97140.04
2018-09-12T20:57:36.146Z,97140.50
2018-09-12T21:00:04.097Z,97130.50
2018-09-12T21:02:31.454Z,97133.83
2018-09-12T21:04:58.903Z,97139.03
2018-09-12T21:07:26.149Z,97146.36
2018-09-12T21:09:53.289Z,97147.05
2018-09-12T21:12:20.488Z,97141.99
2018-09-12T21:14:47.820Z,97148.34
2018-09-12T21:17:15.074Z,97137.50
2018-09-12T21:19:42.885Z,97131.81
2018-09-12T21:22:10.078Z,97132.22
2018-09-12T21:24:37.278Z,97139.83
2018-09-12T21:27:04.404Z,97140.05
2018-09-12T21:29:31.721Z,97136.74
2018-09-12T21:31:58.983Z,97131.66
2018-09-12T21:34:26.188Z,97132.41
2018-09-12T21:36:53.424Z,97129.84
2018-09-12T21:39:20.623Z,97132.09
2018-09-12T21:41:47.756Z,97128.45
2018-09-12T21:44:15.123Z,97123.96
2018-09-12T21:46:42.336Z,97130.45
2018-09-12T21:49:09.455Z,97135.94
2018-09-12T21:51:36.730Z,97131.50
2018-09-12T21:54:03.913Z,97124.39
2018-09-12T21:56:31.108Z,97125.09
2018-09-12T21:58:58.316Z,97125.73
2018-09-12T22:01:25.570Z,97123.34
2018-09-12T22:03:53.276Z,97130.98
2018-09-12T22:06:21.054Z,97121.31
2018-09-12T22:08:48.289Z,97120.77
2018-09-12T22:11:15.491Z,97118.00
2018-09-12T22:13:42.728Z,97114.69
2018-09-12T22:16:09.872Z,97114.02
2018-09-12T22:18:37.060Z,97112.61
2018-09-12T22:21:04.179Z,97118.02
2018-09-12T22:23:31.328Z,97114.98
2018-09-12T22:25:59.812Z,97147.60
2018-09-12T22:28:27.089Z,97119.81
2018-09-12T22:30:54.256Z,97128.63
2018-09-12T22:33:21.532Z,97122.38
2018-09-12T22:35:48.693Z,97111.52
2018-09-12T22:38:15.866Z,97113.48
2018-09-12T22:40:43.093Z,97119.39
2018-09-12T22:43:10.302Z,97125.09
2018-09-12T22:45:37.444Z,97138.18
2018-09-12T22:48:04.833Z,97136.86
2018-09-12T22:50:32.119Z,97136.19
2018-09-12T22:52:59.292Z,97121.94
2018-09-12T22:55:26.428Z,97125.44
2018-09-12T22:57:53.526Z,97127.06
2018-09-12T23:00:20.740Z,97125.99
2018-09-12T23:02:48.009Z,97128.82
2018-09-12T23:05:15.120Z,97130.23
2018-09-12T23:07:42.508Z,97126.06
2018-09-12T23:10:09.740Z,97125.78
2018-09-12T23:12:36.877Z,97140.42
2018-09-12T23:15:04.817Z,97128.53
2018-09-12T23:17:31.953Z,97127.14
2018-09-12T23:19:59.148Z,97128.82
2018-09-12T23:22:26.975Z,97132.83
2018-09-12T23:24:54.261Z,97132.22
2018-09-12T23:27:21.436Z,97130.18
2018-09-12T23:29:48.691Z,97131.05
2018-09-12T23:32:15.809Z,96981.81
2018-09-12T23:34:43.016Z,97124.11
2018-09-12T23:37:10.324Z,97131.12
2018-09-12T23:39:37.465Z,97129.81
2018-09-12T23:42:04.677Z,97130.08
2018-09-12T23:44:31.909Z,97127.63
2018-09-12T23:46:59.042Z,97124.97
2018-09-12T23:49:26.349Z,97119.56
2018-09-12T23:51:53.628Z,97121.16
2018-09-12T23:54:20.805Z,97118.81
2018-09-12T23:56:47.981Z,97118.70
2018-09-12T23:59:15.128Z,97113.33
